sensor_id;sensor_type;location;lat;lon;timestamp;pressure;altitude;pressure_sealevel;temperature;humidity
55191;BME280;41070;50.360;18.742;2023-02-12T00:00:10;99933.22;;;2.40;100.00
55191;BME280;41070;50.360;18.742;2023-02-12T00:03:17;99933.99;;;2.40;100.00
55191;BME280;41070;50.360;18.742;2023-02-12T00:05:47;99935.52;;;2.38;100.00
55191;BME280;41070;50.360;18.742;2023-02-12T00:08:14;99938.32;;;2.37;100.00
55191;BME280;41070;50.360;18.742;2023-02-12T00:10:49;99942.00;;;2.35;100.00
55191;BME280;41070;50.360;18.742;2023-02-12T00:13:16;99940.63;;;2.35;100.00
55191;BME280;41070;50.360;18.742;2023-02-12T00:15:46;99942.56;;;2.33;100.00
55191;BME280;41070;50.360;18.742;2023-02-12T00:18:44;99944.98;;;2.31;100.00
55191;BME280;41070;50.360;18.742;2023-02-12T00:21:16;99950.85;;;2.29;100.00
55191;BME280;41070;50.360;18.742;2023-02-12T00:24:03;99952.52;;;2.29;100.00
55191;BME280;41070;50.360;18.742;2023-02-12T00:27:35;99957.61;;;2.29;100.00
55191;BME280;41070;50.360;18.742;2023-02-12T00:30:27;99963.67;;;2.28;100.00
55191;BME280;41070;50.360;18.742;2023-02-12T00:33:37;99964.98;;;2.27;100.00
55191;BME280;41070;50.360;18.742;2023-02-12T00:36:34;99965.66;;;2.25;100.00
55191;BME280;41070;50.360;18.742;2023-02-12T00:39:24;99959.73;;;2.23;100.00
55191;BME280;41070;50.360;18.742;2023-02-12T00:41:52;99961.71;;;2.27;100.00
55191;BME280;41070;50.360;18.742;2023-02-12T00:44:24;99963.99;;;2.29;100.00
55191;BME280;41070;50.360;18.742;2023-02-12T00:46:50;99967.64;;;2.31;100.00
55191;BME280;41070;50.360;18.742;2023-02-12T00:49:51;99965.11;;;2.31;100.00
55191;BME280;41070;50.360;18.742;2023-02-12T00:52:43;99966.34;;;2.32;100.00
55191;BME280;41070;50.360;18.742;2023-02-12T00:55:15;99967.40;;;2.33;100.00
55191;BME280;41070;50.360;18.742;2023-02-12T00:58:02;99972.29;;;2.36;100.00
55191;BME280;41070;50.360;18.742;2023-02-12T01:01:11;99973.54;;;2.34;100.00
55191;BME280;41070;50.360;18.742;2023-02-12T01:04:45;99975.36;;;2.37;100.00
55191;BME280;41070;50.360;18.742;2023-02-12T01:07:42;99981.08;;;2.38;100.00
55191;BME280;41070;50.360;18.742;2023-02-12T01:10:56;99974.80;;;2.41;100.00
55191;BME280;41070;50.360;18.742;2023-02-12T01:13:40;99978.60;;;2.41;100.00
55191;BME280;41070;50.360;18.742;2023-02-12T01:16:28;99977.02;;;2.42;100.00
55191;BME280;41070;50.360;18.742;2023-02-12T01:19:28;99977.40;;;2.43;100.00
55191;BME280;41070;50.360;18.742;2023-02-12T01:22:17;99982.15;;;2.43;100.00
55191;BME280;41070;50.360;18.742;2023-02-12T01:25:18;99991.63;;;2.44;100.00
55191;BME280;41070;50.360;18.742;2023-02-12T01:27:51;99987.81;;;2.43;100.00
55191;BME280;41070;50.360;18.742;2023-02-12T01:30:34;99992.36;;;2.44;100.00
55191;BME280;41070;50.360;18.742;2023-02-12T01:33:13;100000.50;;;2.44;100.00
55191;BME280;41070;50.360;18.742;2023-02-12T01:39:49;100008.52;;;2.43;100.00
55191;BME280;41070;50.360;18.742;2023-02-12T01:42:16;100012.38;;;2.43;100.00
55191;BME280;41070;50.360;18.742;2023-02-12T01:47:44;100006.98;;;2.42;100.00
55191;BME280;41070;50.360;18.742;2023-02-12T01:50:32;100018.08;;;2.42;100.00
55191;BME280;41070;50.360;18.742;2023-02-12T01:53:00;100015.44;;;2.42;100.00
55191;BME280;41070;50.360;18.742;2023-02-12T01:55:37;100014.38;;;2.42;100.00
55191;BME280;41070;50.360;18.742;2023-02-12T01:58:03;100019.40;;;2.43;100.00
55191;BME280;41070;50.360;18.742;2023-02-12T02:00:34;100027.13;;;2.44;100.00
55191;BME280;41070;50.360;18.742;2023-02-12T02:03:48;100021.80;;;2.44;100.00
55191;BME280;41070;50.360;18.742;2023-02-12T02:06:31;100027.71;;;2.45;100.00
55191;BME280;41070;50.360;18.742;2023-02-12T02:08:57;100028.67;;;2.44;100.00
55191;BME280;41070;50.360;18.742;2023-02-12T02:11:24;100028.94;;;2.44;100.00
55191;BME280;41070;50.360;18.742;2023-02-12T02:14:35;100032.37;;;2.45;100.00
55191;BME280;41070;50.360;18.742;2023-02-12T02:18:06;100030.80;;;2.45;100.00
55191;BME280;41070;50.360;18.742;2023-02-12T02:23:44;100037.23;;;2.45;100.00
55191;BME280;41070;50.360;18.742;2023-02-12T02:30:27;100041.29;;;2.44;100.00
55191;BME280;41070;50.360;18.742;2023-02-12T02:34:11;100042.16;;;2.42;100.00
55191;BME280;41070;50.360;18.742;2023-02-12T02:37:30;100045.34;;;2.41;100.00
55191;BME280;41070;50.360;18.742;2023-02-12T02:40:48;100057.86;;;2.41;100.00
55191;BME280;41070;50.360;18.742;2023-02-12T02:43:49;100063.10;;;2.43;100.00
55191;BME280;41070;50.360;18.742;2023-02-12T02:46:29;100064.54;;;2.44;100.00
55191;BME280;41070;50.360;18.742;2023-02-12T02:49:50;100076.29;;;2.45;100.00
55191;BME280;41070;50.360;18.742;2023-02-12T02:52:33;100076.13;;;2.46;100.00
55191;BME280;41070;50.360;18.742;2023-02-12T02:55:37;100072.11;;;2.47;100.00
55191;BME280;41070;50.360;18.742;2023-02-12T02:58:40;100068.21;;;2.46;100.00
55191;BME280;41070;50.360;18.742;2023-02-12T03:01:43;100076.83;;;2.47;100.00
55191;BME280;41070;50.360;18.742;2023-02-12T03:04:33;100085.20;;;2.48;100.00
55191;BME280;41070;50.360;18.742;2023-02-12T03:07:30;100090.10;;;2.48;100.00
55191;BME280;41070;50.360;18.742;2023-02-12T03:10:19;100086.30;;;2.48;100.00
55191;BME280;41070;50.360;18.742;2023-02-12T03:12:54;100092.86;;;2.49;100.00
55191;BME280;41070;50.360;18.742;2023-02-12T03:15:31;100099.36;;;2.49;100.00
55191;BME280;41070;50.360;18.742;2023-02-12T03:18:02;100104.59;;;2.49;100.00
55191;BME280;41070;50.360;18.742;2023-02-12T03:20:58;100107.77;;;2.51;100.00
55191;BME280;41070;50.360;18.742;2023-02-12T03:24:00;100113.09;;;2.49;100.00
55191;BME280;41070;50.360;18.742;2023-02-12T03:29:28;100141.07;;;2.45;100.00
55191;BME280;41070;50.360;18.742;2023-02-12T03:33:05;100142.60;;;2.44;100.00
55191;BME280;41070;50.360;18.742;2023-02-12T03:35:37;100145.08;;;2.44;100.00
55191;BME280;41070;50.360;18.742;2023-02-12T03:41:20;100158.38;;;2.43;100.00
55191;BME280;41070;50.360;18.742;2023-02-12T03:44:14;100171.90;;;2.43;100.00
55191;BME280;41070;50.360;18.742;2023-02-12T03:47:03;100173.97;;;2.42;100.00
55191;BME280;41070;50.360;18.742;2023-02-12T03:50:02;100175.39;;;2.42;100.00
55191;BME280;41070;50.360;18.742;2023-02-12T03:52:31;100175.41;;;2.44;100.00
55191;BME280;41070;50.360;18.742;2023-02-12T03:55:19;100176.77;;;2.43;100.00
55191;BME280;41070;50.360;18.742;2023-02-12T03:58:18;100177.19;;;2.43;100.00
55191;BME280;41070;50.360;18.742;2023-02-12T04:01:12;100180.26;;;2.43;100.00
55191;BME280;41070;50.360;18.742;2023-02-12T04:03:49;100184.59;;;2.42;100.00
55191;BME280;41070;50.360;18.742;2023-02-12T04:06:44;100190.65;;;2.42;100.00
55191;BME280;41070;50.360;18.742;2023-02-12T04:09:34;100193.67;;;2.42;100.00
55191;BME280;41070;50.360;18.742;2023-02-12T04:28:50;100215.41;;;2.30;100.00
55191;BME280;41070;50.360;18.742;2023-02-12T04:31:40;100215.63;;;2.30;100.00
55191;BME280;41070;50.360;18.742;2023-02-12T04:37:26;100229.09;;;2.33;100.00
55191;BME280;41070;50.360;18.742;2023-02-12T04:39:58;100234.48;;;2.35;100.00
55191;BME280;41070;50.360;18.742;2023-02-12T04:42:27;100236.52;;;2.36;100.00
55191;BME280;41070;50.360;18.742;2023-02-12T04:44:54;100239.33;;;2.38;100.00
55191;BME280;41070;50.360;18.742;2023-02-12T04:47:24;100239.02;;;2.39;100.00
55191;BME280;41070;50.360;18.742;2023-02-12T04:49:52;100245.31;;;2.39;100.00
55191;BME280;41070;50.360;18.742;2023-02-12T04:52:23;100247.91;;;2.39;100.00
55191;BME280;41070;50.360;18.742;2023-02-12T04:54:52;100247.54;;;2.39;100.00
55191;BME280;41070;50.360;18.742;2023-02-12T04:57:21;100256.84;;;2.39;100.00
55191;BME280;41070;50.360;18.742;2023-02-12T04:59:51;100264.46;;;2.41;100.00
55191;BME280;41070;50.360;18.742;2023-02-12T05:02:17;100261.60;;;2.40;100.00
55191;BME280;41070;50.360;18.742;2023-02-12T05:05:06;100267.45;;;2.39;100.00
55191;BME280;41070;50.360;18.742;2023-02-12T05:07:36;100270.46;;;2.38;100.00
55191;BME280;41070;50.360;18.742;2023-02-12T05:10:02;100273.23;;;2.36;100.00
55191;BME280;41070;50.360;18.742;2023-02-12T05:12:30;100272.77;;;2.33;100.00
55191;BME280;41070;50.360;18.742;2023-02-12T05:14:57;100278.16;;;2.33;100.00
55191;BME280;41070;50.360;18.742;2023-02-12T05:17:32;100278.68;;;2.32;100.00
55191;BME280;41070;50.360;18.742;2023-02-12T05:19:58;100277.05;;;2.32;100.00
55191;BME280;41070;50.360;18.742;2023-02-12T05:22:24;100279.74;;;2.33;100.00
55191;BME280;41070;50.360;18.742;2023-02-12T05:25:09;100278.89;;;2.32;100.00
55191;BME280;41070;50.360;18.742;2023-02-12T05:27:37;100284.81;;;2.33;100.00
55191;BME280;41070;50.360;18.742;2023-02-12T05:30:07;100287.94;;;2.33;100.00
55191;BME280;41070;50.360;18.742;2023-02-12T05:32:48;100293.06;;;2.33;100.00
55191;BME280;41070;50.360;18.742;2023-02-12T05:35:14;100297.65;;;2.32;100.00
55191;BME280;41070;50.360;18.742;2023-02-12T05:37:45;100296.47;;;2.30;100.00
55191;BME280;41070;50.360;18.742;2023-02-12T05:40:12;100301.52;;;2.30;100.00
55191;BME280;41070;50.360;18.742;2023-02-12T05:42:45;100306.55;;;2.29;100.00
55191;BME280;41070;50.360;18.742;2023-02-12T05:45:38;100308.06;;;2.28;100.00
55191;BME280;41070;50.360;18.742;2023-02-12T05:48:22;100313.67;;;2.28;100.00
55191;BME280;41070;50.360;18.742;2023-02-12T05:50:48;100314.05;;;2.26;100.00
55191;BME280;41070;50.360;18.742;2023-02-12T05:53:19;100322.81;;;2.21;100.00
55191;BME280;41070;50.360;18.742;2023-02-12T05:55:51;100327.07;;;2.19;100.00
55191;BME280;41070;50.360;18.742;2023-02-12T06:05:30;100339.98;;;2.13;100.00
55191;BME280;41070;50.360;18.742;2023-02-12T06:07:58;100346.66;;;2.11;100.00
55191;BME280;41070;50.360;18.742;2023-02-12T06:10:26;100355.13;;;2.04;100.00
55191;BME280;41070;50.360;18.742;2023-02-12T06:12:53;100361.67;;;1.97;100.00
55191;BME280;41070;50.360;18.742;2023-02-12T06:15:20;100372.43;;;1.92;100.00
55191;BME280;41070;50.360;18.742;2023-02-12T06:17:47;100375.59;;;1.91;100.00
55191;BME280;41070;50.360;18.742;2023-02-12T06:20:13;100383.02;;;1.91;100.00
55191;BME280;41070;50.360;18.742;2023-02-12T06:22:43;100379.63;;;1.90;100.00
55191;BME280;41070;50.360;18.742;2023-02-12T06:25:10;100388.39;;;1.89;100.00
55191;BME280;41070;50.360;18.742;2023-02-12T06:27:41;100389.40;;;1.87;100.00
55191;BME280;41070;50.360;18.742;2023-02-12T06:30:08;100397.10;;;1.86;100.00
55191;BME280;41070;50.360;18.742;2023-02-12T06:32:41;100404.41;;;1.85;100.00
55191;BME280;41070;50.360;18.742;2023-02-12T06:35:08;100411.27;;;1.84;100.00
55191;BME280;41070;50.360;18.742;2023-02-12T06:37:34;100414.89;;;1.82;100.00
55191;BME280;41070;50.360;18.742;2023-02-12T06:40:03;100417.82;;;1.81;100.00
55191;BME280;41070;50.360;18.742;2023-02-12T06:42:29;100421.21;;;1.82;100.00
55191;BME280;41070;50.360;18.742;2023-02-12T06:44:56;100421.73;;;1.82;100.00
55191;BME280;41070;50.360;18.742;2023-02-12T06:47:24;100417.80;;;1.84;100.00
55191;BME280;41070;50.360;18.742;2023-02-12T06:49:54;100423.23;;;1.86;100.00
55191;BME280;41070;50.360;18.742;2023-02-12T06:52:21;100423.64;;;1.89;100.00
55191;BME280;41070;50.360;18.742;2023-02-12T06:54:51;100428.26;;;1.93;100.00
55191;BME280;41070;50.360;18.742;2023-02-12T06:57:24;100430.93;;;1.95;100.00
55191;BME280;41070;50.360;18.742;2023-02-12T06:59:51;100433.20;;;1.95;100.00
55191;BME280;41070;50.360;18.742;2023-02-12T07:02:18;100433.64;;;1.93;100.00
55191;BME280;41070;50.360;18.742;2023-02-12T07:04:44;100435.02;;;1.90;100.00
55191;BME280;41070;50.360;18.742;2023-02-12T07:07:11;100435.20;;;1.88;100.00
55191;BME280;41070;50.360;18.742;2023-02-12T07:09:38;100441.11;;;1.88;100.00
55191;BME280;41070;50.360;18.742;2023-02-12T07:12:08;100437.71;;;1.83;100.00
55191;BME280;41070;50.360;18.742;2023-02-12T07:14:38;100437.35;;;1.78;100.00
55191;BME280;41070;50.360;18.742;2023-02-12T07:17:06;100438.80;;;1.73;100.00
55191;BME280;41070;50.360;18.742;2023-02-12T07:19:35;100441.48;;;1.67;100.00
55191;BME280;41070;50.360;18.742;2023-02-12T07:22:12;100439.13;;;1.61;100.00
55191;BME280;41070;50.360;18.742;2023-02-12T07:24:38;100450.70;;;1.56;100.00
55191;BME280;41070;50.360;18.742;2023-02-12T07:27:05;100452.79;;;1.51;100.00
55191;BME280;41070;50.360;18.742;2023-02-12T07:29:31;100459.35;;;1.47;100.00
55191;BME280;41070;50.360;18.742;2023-02-12T07:31:58;100462.08;;;1.41;100.00
55191;BME280;41070;50.360;18.742;2023-02-12T07:34:24;100467.27;;;1.35;100.00
55191;BME280;41070;50.360;18.742;2023-02-12T07:36:50;100469.09;;;1.31;100.00
55191;BME280;41070;50.360;18.742;2023-02-12T07:39:16;100471.33;;;1.30;100.00
55191;BME280;41070;50.360;18.742;2023-02-12T07:41:42;100471.06;;;1.27;100.00
55191;BME280;41070;50.360;18.742;2023-02-12T07:44:10;100474.73;;;1.26;100.00
55191;BME280;41070;50.360;18.742;2023-02-12T07:46:47;100478.84;;;1.25;100.00
55191;BME280;41070;50.360;18.742;2023-02-12T07:49:25;100482.90;;;1.26;99.90
55191;BME280;41070;50.360;18.742;2023-02-12T07:51:53;100480.17;;;1.27;100.00
55191;BME280;41070;50.360;18.742;2023-02-12T07:54:21;100487.77;;;1.29;99.96
55191;BME280;41070;50.360;18.742;2023-02-12T07:56:47;100489.76;;;1.29;99.49
55191;BME280;41070;50.360;18.742;2023-02-12T07:59:16;100483.77;;;1.27;99.27
55191;BME280;41070;50.360;18.742;2023-02-12T08:01:48;100486.80;;;1.28;99.10
55191;BME280;41070;50.360;18.742;2023-02-12T08:04:17;100481.39;;;1.27;98.61
55191;BME280;41070;50.360;18.742;2023-02-12T08:06:45;100490.32;;;1.31;98.68
55191;BME280;41070;50.360;18.742;2023-02-12T08:09:16;100497.02;;;1.33;98.45
55191;BME280;41070;50.360;18.742;2023-02-12T08:11:43;100504.83;;;1.35;98.29
55191;BME280;41070;50.360;18.742;2023-02-12T08:14:11;100512.54;;;1.39;98.57
55191;BME280;41070;50.360;18.742;2023-02-12T08:16:38;100511.49;;;1.45;98.41
55191;BME280;41070;50.360;18.742;2023-02-12T08:19:05;100514.92;;;1.48;98.46
55191;BME280;41070;50.360;18.742;2023-02-12T08:21:32;100516.95;;;1.54;98.38
55191;BME280;41070;50.360;18.742;2023-02-12T08:24:01;100519.63;;;1.56;97.61
55191;BME280;41070;50.360;18.742;2023-02-12T08:26:34;100517.57;;;1.56;97.14
55191;BME280;41070;50.360;18.742;2023-02-12T08:29:10;100525.55;;;1.53;96.31
55191;BME280;41070;50.360;18.742;2023-02-12T08:31:44;100530.86;;;1.51;95.70
55191;BME280;41070;50.360;18.742;2023-02-12T08:34:22;100536.31;;;1.48;95.12
55191;BME280;41070;50.360;18.742;2023-02-12T08:36:52;100539.15;;;1.48;94.67
55191;BME280;41070;50.360;18.742;2023-02-12T08:39:23;100543.69;;;1.51;95.16
55191;BME280;41070;50.360;18.742;2023-02-12T08:41:50;100547.86;;;1.56;95.08
55191;BME280;41070;50.360;18.742;2023-02-12T08:44:19;100550.28;;;1.58;95.01
55191;BME280;41070;50.360;18.742;2023-02-12T08:46:47;100551.08;;;1.56;94.73
55191;BME280;41070;50.360;18.742;2023-02-12T08:49:20;100552.42;;;1.54;94.31
55191;BME280;41070;50.360;18.742;2023-02-12T08:51:49;100556.84;;;1.51;94.37
55191;BME280;41070;50.360;18.742;2023-02-12T08:54:20;100558.52;;;1.48;94.17
55191;BME280;41070;50.360;18.742;2023-02-12T08:56:48;100558.83;;;1.45;93.12
55191;BME280;41070;50.360;18.742;2023-02-12T08:59:16;100560.22;;;1.38;93.17
55191;BME280;41070;50.360;18.742;2023-02-12T09:01:50;100557.73;;;1.34;93.58
55191;BME280;41070;50.360;18.742;2023-02-12T09:04:19;100563.86;;;1.43;93.73
55191;BME280;41070;50.360;18.742;2023-02-12T09:06:47;100569.45;;;1.46;93.38
55191;BME280;41070;50.360;18.742;2023-02-12T09:09:14;100571.13;;;1.43;93.05
55191;BME280;41070;50.360;18.742;2023-02-12T09:11:44;100573.20;;;1.41;92.87
55191;BME280;41070;50.360;18.742;2023-02-12T09:14:13;100576.65;;;1.45;92.97
55191;BME280;41070;50.360;18.742;2023-02-12T09:16:40;100578.84;;;1.53;92.71
55191;BME280;41070;50.360;18.742;2023-02-12T09:19:07;100579.79;;;1.56;92.54
55191;BME280;41070;50.360;18.742;2023-02-12T09:21:34;100582.81;;;1.57;92.02
55191;BME280;41070;50.360;18.742;2023-02-12T09:24:01;100579.48;;;1.57;91.81
55191;BME280;41070;50.360;18.742;2023-02-12T09:26:28;100579.83;;;1.63;91.88
55191;BME280;41070;50.360;18.742;2023-02-12T09:28:54;100581.93;;;1.63;91.29
55191;BME280;41070;50.360;18.742;2023-02-12T09:31:22;100590.95;;;1.63;91.35
55191;BME280;41070;50.360;18.742;2023-02-12T09:33:57;100590.70;;;1.72;92.08
55191;BME280;41070;50.360;18.742;2023-02-12T09:36:24;100599.88;;;1.79;91.74
55191;BME280;41070;50.360;18.742;2023-02-12T09:38:50;100602.72;;;1.85;91.34
55191;BME280;41070;50.360;18.742;2023-02-12T09:44:03;100615.06;;;1.89;90.87
55191;BME280;41070;50.360;18.742;2023-02-12T09:46:38;100619.84;;;1.90;91.00
55191;BME280;41070;50.360;18.742;2023-02-12T09:49:22;100622.77;;;1.90;90.53
55191;BME280;41070;50.360;18.742;2023-02-12T09:51:52;100622.90;;;1.88;90.25
55191;BME280;41070;50.360;18.742;2023-02-12T09:54:23;100616.05;;;1.86;90.08
55191;BME280;41070;50.360;18.742;2023-02-12T09:56:54;100615.31;;;1.89;90.36
55191;BME280;41070;50.360;18.742;2023-02-12T09:59:31;100610.92;;;1.91;90.31
55191;BME280;41070;50.360;18.742;2023-02-12T10:01:58;100616.74;;;1.94;90.14
55191;BME280;41070;50.360;18.742;2023-02-12T10:04:25;100617.49;;;1.95;89.98
55191;BME280;41070;50.360;18.742;2023-02-12T10:07:02;100620.05;;;1.96;90.18
55191;BME280;41070;50.360;18.742;2023-02-12T10:12:14;100626.12;;;2.05;89.89
55191;BME280;41070;50.360;18.742;2023-02-12T10:15:24;100625.85;;;2.05;89.74
55191;BME280;41070;50.360;18.742;2023-02-12T10:18:18;100621.14;;;2.06;90.18
55191;BME280;41070;50.360;18.742;2023-02-12T10:24:34;100636.52;;;2.16;89.56
55191;BME280;41070;50.360;18.742;2023-02-12T10:26:43;100628.35;;;2.20;89.52
55191;BME280;41070;50.360;18.742;2023-02-12T10:29:16;100624.77;;;2.20;88.97
55191;BME280;41070;50.360;18.742;2023-02-12T10:31:49;100627.67;;;2.21;88.96
55191;BME280;41070;50.360;18.742;2023-02-12T10:34:20;100631.14;;;2.25;89.02
55191;BME280;41070;50.360;18.742;2023-02-12T10:36:48;100631.23;;;2.36;89.58
55191;BME280;41070;50.360;18.742;2023-02-12T10:39:30;100638.54;;;2.40;88.62
55191;BME280;41070;50.360;18.742;2023-02-12T10:42:11;100636.74;;;2.38;88.65
55191;BME280;41070;50.360;18.742;2023-02-12T10:44:40;100643.81;;;2.40;88.66
55191;BME280;41070;50.360;18.742;2023-02-12T10:47:25;100640.14;;;2.38;88.64
55191;BME280;41070;50.360;18.742;2023-02-12T10:49:57;100636.41;;;2.36;88.60
55191;BME280;41070;50.360;18.742;2023-02-12T10:52:44;100636.52;;;2.43;88.51
55191;BME280;41070;50.360;18.742;2023-02-12T10:55:31;100639.98;;;2.47;88.71
55191;BME280;41070;50.360;18.742;2023-02-12T10:57:59;100641.08;;;2.49;88.55
55191;BME280;41070;50.360;18.742;2023-02-12T11:00:30;100639.00;;;2.52;88.43
55191;BME280;41070;50.360;18.742;2023-02-12T11:05:40;100643.39;;;2.59;88.53
55191;BME280;41070;50.360;18.742;2023-02-12T11:08:07;100637.89;;;2.59;88.28
55191;BME280;41070;50.360;18.742;2023-02-12T11:10:45;100638.14;;;2.66;88.40
55191;BME280;41070;50.360;18.742;2023-02-12T11:13:25;100636.64;;;2.72;88.66
55191;BME280;41070;50.360;18.742;2023-02-12T11:15:53;100634.96;;;2.75;88.38
55191;BME280;41070;50.360;18.742;2023-02-12T11:18:30;100633.21;;;2.80;88.60
55191;BME280;41070;50.360;18.742;2023-02-12T11:21:09;100633.33;;;2.83;88.23
55191;BME280;41070;50.360;18.742;2023-02-12T11:23:43;100635.26;;;2.81;88.14
55191;BME280;41070;50.360;18.742;2023-02-12T11:28:56;100631.86;;;2.88;88.26
55191;BME280;41070;50.360;18.742;2023-02-12T11:31:27;100632.98;;;2.95;88.12
55191;BME280;41070;50.360;18.742;2023-02-12T11:34:16;100629.70;;;2.99;87.76
55191;BME280;41070;50.360;18.742;2023-02-12T11:36:53;100626.34;;;3.04;87.86
55191;BME280;41070;50.360;18.742;2023-02-12T11:39:26;100632.54;;;3.04;87.74
55191;BME280;41070;50.360;18.742;2023-02-12T11:42:16;100636.27;;;3.02;87.42
55191;BME280;41070;50.360;18.742;2023-02-12T11:44:54;100635.47;;;3.07;87.81
55191;BME280;41070;50.360;18.742;2023-02-12T11:47:27;100633.52;;;3.13;87.92
55191;BME280;41070;50.360;18.742;2023-02-12T11:50:45;100635.10;;;3.22;87.96
55191;BME280;41070;50.360;18.742;2023-02-12T11:52:47;100627.59;;;3.22;87.72
55191;BME280;41070;50.360;18.742;2023-02-12T11:55:24;100629.13;;;3.21;87.62
55191;BME280;41070;50.360;18.742;2023-02-12T11:57:54;100626.87;;;3.19;87.43
55191;BME280;41070;50.360;18.742;2023-02-12T12:00:27;100630.89;;;3.19;87.19
55191;BME280;41070;50.360;18.742;2023-02-12T12:03:33;100625.14;;;3.17;87.13
55191;BME280;41070;50.360;18.742;2023-02-12T12:06:21;100624.98;;;3.20;87.19
55191;BME280;41070;50.360;18.742;2023-02-12T12:11:33;100625.25;;;3.20;87.38
55191;BME280;41070;50.360;18.742;2023-02-12T12:14:13;100629.02;;;3.21;87.36
55191;BME280;41070;50.360;18.742;2023-02-12T12:16:47;100627.30;;;3.20;87.38
55191;BME280;41070;50.360;18.742;2023-02-12T12:19:48;100630.56;;;3.15;86.91
55191;BME280;41070;50.360;18.742;2023-02-12T12:25:19;100627.71;;;3.23;87.42
55191;BME280;41070;50.360;18.742;2023-02-12T12:28:31;100627.46;;;3.24;87.34
55191;BME280;41070;50.360;18.742;2023-02-12T12:34:10;100628.44;;;3.21;87.40
55191;BME280;41070;50.360;18.742;2023-02-12T12:43:12;100639.90;;;3.28;87.74
55191;BME280;41070;50.360;18.742;2023-02-12T12:52:09;100632.13;;;3.48;87.59
55191;BME280;41070;50.360;18.742;2023-02-12T13:00:23;100632.48;;;3.63;87.61
55191;BME280;41070;50.360;18.742;2023-02-12T13:15:13;100631.39;;;3.93;87.05
55191;BME280;41070;50.360;18.742;2023-02-12T13:17:51;100631.59;;;3.96;86.83
55191;BME280;41070;50.360;18.742;2023-02-12T13:20:39;100634.67;;;4.01;86.76
55191;BME280;41070;50.360;18.742;2023-02-12T13:28:50;100626.30;;;4.07;86.73
55191;BME280;41070;50.360;18.742;2023-02-12T13:31:21;100627.16;;;4.13;86.20
55191;BME280;41070;50.360;18.742;2023-02-12T13:33:54;100626.27;;;4.14;86.46
55191;BME280;41070;50.360;18.742;2023-02-12T13:36:21;100624.65;;;4.17;86.14
55191;BME280;41070;50.360;18.742;2023-02-12T13:39:09;100631.15;;;4.15;86.26
55191;BME280;41070;50.360;18.742;2023-02-12T13:41:44;100627.02;;;4.16;86.44
55191;BME280;41070;50.360;18.742;2023-02-12T13:44:58;100621.80;;;4.18;86.63
55191;BME280;41070;50.360;18.742;2023-02-12T13:50:29;100640.77;;;4.28;86.48
55191;BME280;41070;50.360;18.742;2023-02-12T13:53:01;100639.20;;;4.29;86.39
55191;BME280;41070;50.360;18.742;2023-02-12T13:55:38;100636.08;;;4.35;86.41
55191;BME280;41070;50.360;18.742;2023-02-12T14:01:03;100629.87;;;4.46;86.56
55191;BME280;41070;50.360;18.742;2023-02-12T14:03:32;100631.88;;;4.52;86.06
55191;BME280;41070;50.360;18.742;2023-02-12T14:06:20;100634.55;;;4.48;85.55
55191;BME280;41070;50.360;18.742;2023-02-12T14:09:06;100633.73;;;4.46;85.59
55191;BME280;41070;50.360;18.742;2023-02-12T14:11:46;100633.10;;;4.48;85.53
55191;BME280;41070;50.360;18.742;2023-02-12T14:14:24;100638.48;;;4.43;85.10
55191;BME280;41070;50.360;18.742;2023-02-12T14:16:52;100637.49;;;4.35;85.32
55191;BME280;41070;50.360;18.742;2023-02-12T14:19:39;100637.38;;;4.27;85.47
55191;BME280;41070;50.360;18.742;2023-02-12T14:23:20;100643.13;;;4.15;85.63
55191;BME280;41070;50.360;18.742;2023-02-12T14:25:57;100645.48;;;4.11;86.10
55191;BME280;41070;50.360;18.742;2023-02-12T14:31:35;100643.44;;;4.04;86.11
55191;BME280;41070;50.360;18.742;2023-02-12T14:41:49;100640.27;;;3.95;86.47
55191;BME280;41070;50.360;18.742;2023-02-12T14:46:53;100639.69;;;3.95;86.35
55191;BME280;41070;50.360;18.742;2023-02-12T14:50:02;100633.11;;;3.95;86.47
55191;BME280;41070;50.360;18.742;2023-02-12T14:53:02;100633.02;;;3.87;86.35
55191;BME280;41070;50.360;18.742;2023-02-12T14:56:22;100639.08;;;3.79;86.40
55191;BME280;41070;50.360;18.742;2023-02-12T14:58:52;100645.77;;;3.73;86.83
55191;BME280;41070;50.360;18.742;2023-02-12T15:05:39;100651.61;;;3.65;87.13
55191;BME280;41070;50.360;18.742;2023-02-12T15:08:24;100654.65;;;3.66;87.21
55191;BME280;41070;50.360;18.742;2023-02-12T15:14:23;100657.77;;;3.59;87.29
55191;BME280;41070;50.360;18.742;2023-02-12T15:16:58;100648.02;;;3.53;87.33
55191;BME280;41070;50.360;18.742;2023-02-12T15:19:56;100645.42;;;3.50;87.43
55191;BME280;41070;50.360;18.742;2023-02-12T15:22:40;100642.27;;;3.46;87.73
55191;BME280;41070;50.360;18.742;2023-02-12T15:25:29;100643.73;;;3.49;88.06
55191;BME280;41070;50.360;18.742;2023-02-12T15:28:00;100644.48;;;3.49;87.76
55191;BME280;41070;50.360;18.742;2023-02-12T15:30:33;100648.04;;;3.42;87.73
55191;BME280;41070;50.360;18.742;2023-02-12T15:33:03;100649.81;;;3.36;87.92
55191;BME280;41070;50.360;18.742;2023-02-12T15:35:32;100645.73;;;3.29;87.75
55191;BME280;41070;50.360;18.742;2023-02-12T15:37:59;100646.11;;;3.21;87.82
55191;BME280;41070;50.360;18.742;2023-02-12T15:40:30;100648.05;;;3.13;88.10
55191;BME280;41070;50.360;18.742;2023-02-12T15:42:59;100646.96;;;3.08;88.14
55191;BME280;41070;50.360;18.742;2023-02-12T15:45:27;100641.63;;;3.00;88.22
55191;BME280;41070;50.360;18.742;2023-02-12T15:48:17;100643.06;;;2.94;88.35
55191;BME280;41070;50.360;18.742;2023-02-12T15:53:21;100645.96;;;2.80;88.57
55191;BME280;41070;50.360;18.742;2023-02-12T15:55:49;100646.71;;;2.67;88.22